Saint Clair Beach, Canada
Current Conditions -  °F | °C
As of 3:42 AM on Friday 28 Nov 2014 (Local Time) from CYQG Reporting Station
Broken Clouds Broken Clouds  
Wind Chill:   Ceiling: 3500
Heat Index: 21°   Visibility: 15mi
Dew Point:   Wind: 13mph
Humidity: 54%   Direction: 280°W
Pressure: 30.33"   Gusts: NA
Location:  42.32°N, 82.85°W
Report Text: CYQG 280842Z 28011KT 15SM BKN035 M06/M14 A3033 RMK SC6 WSHFT 0825 SLP280
Loading
Personal Weather Stations






























Interactive Weather Map New forecast layout! Learn more

10-Day Weather Forecast

Advertisements
Track Severe Weather on mobile